sensor_id;sensor_type;location;lat;lon;timestamp;P1;durP1;ratioP1;P2;durP2;ratioP2
37449;SDS011;23309;52.582;13.406;2022-08-19T00:01:52;11.00;;;8.77;;
37449;SDS011;23309;52.582;13.406;2022-08-19T00:04:21;10.47;;;9.43;;
37449;SDS011;23309;52.582;13.406;2022-08-19T00:06:50;11.10;;;9.30;;
37449;SDS011;23309;52.582;13.406;2022-08-19T00:09:17;9.70;;;8.67;;
37449;SDS011;23309;52.582;13.406;2022-08-19T00:11:46;10.20;;;9.30;;
37449;SDS011;23309;52.582;13.406;2022-08-19T00:14:16;10.60;;;9.50;;
37449;SDS011;23309;52.582;13.406;2022-08-19T00:16:44;10.60;;;9.37;;
37449;SDS011;23309;52.582;13.406;2022-08-19T00:19:12;10.43;;;9.00;;
37449;SDS011;23309;52.582;13.406;2022-08-19T00:21:39;9.87;;;8.97;;
37449;SDS011;23309;52.582;13.406;2022-08-19T00:24:06;12.77;;;9.10;;
37449;SDS011;23309;52.582;13.406;2022-08-19T00:26:34;13.10;;;9.90;;
37449;SDS011;23309;52.582;13.406;2022-08-19T00:29:01;12.37;;;9.20;;
37449;SDS011;23309;52.582;13.406;2022-08-19T00:31:31;9.73;;;8.73;;
37449;SDS011;23309;52.582;13.406;2022-08-19T00:33:58;10.23;;;8.97;;
37449;SDS011;23309;52.582;13.406;2022-08-19T00:36:25;12.27;;;9.60;;
37449;SDS011;23309;52.582;13.406;2022-08-19T00:38:51;9.90;;;8.90;;
37449;SDS011;23309;52.582;13.406;2022-08-19T00:41:18;11.20;;;8.87;;
37449;SDS011;23309;52.582;13.406;2022-08-19T00:43:56;10.83;;;9.60;;
37449;SDS011;23309;52.582;13.406;2022-08-19T00:46:24;10.63;;;9.73;;
37449;SDS011;23309;52.582;13.406;2022-08-19T00:48:53;11.03;;;9.93;;
37449;SDS011;23309;52.582;13.406;2022-08-19T00:51:21;11.17;;;9.40;;
37449;SDS011;23309;52.582;13.406;2022-08-19T00:53:47;10.60;;;9.60;;
37449;SDS011;23309;52.582;13.406;2022-08-19T00:56:14;10.60;;;9.50;;
37449;SDS011;23309;52.582;13.406;2022-08-19T00:58:40;10.07;;;9.10;;
37449;SDS011;23309;52.582;13.406;2022-08-19T01:01:06;12.73;;;9.63;;
37449;SDS011;23309;52.582;13.406;2022-08-19T01:03:32;12.63;;;9.73;;
37449;SDS011;23309;52.582;13.406;2022-08-19T01:06:01;10.27;;;9.30;;
37449;SDS011;23309;52.582;13.406;2022-08-19T01:08:27;10.17;;;9.17;;
37449;SDS011;23309;52.582;13.406;2022-08-19T01:10:55;11.47;;;10.37;;
37449;SDS011;23309;52.582;13.406;2022-08-19T01:13:25;12.43;;;10.73;;
37449;SDS011;23309;52.582;13.406;2022-08-19T01:15:56;9.37;;;8.47;;
37449;SDS011;23309;52.582;13.406;2022-08-19T01:18:27;15.93;;;10.23;;
37449;SDS011;23309;52.582;13.406;2022-08-19T01:20:56;11.30;;;10.10;;
37449;SDS011;23309;52.582;13.406;2022-08-19T01:23:32;11.87;;;9.63;;
37449;SDS011;23309;52.582;13.406;2022-08-19T01:25:58;13.70;;;10.10;;
37449;SDS011;23309;52.582;13.406;2022-08-19T01:28:26;10.57;;;9.27;;
37449;SDS011;23309;52.582;13.406;2022-08-19T01:30:53;11.50;;;9.87;;
37449;SDS011;23309;52.582;13.406;2022-08-19T01:33:21;10.60;;;9.50;;
37449;SDS011;23309;52.582;13.406;2022-08-19T01:35:47;9.70;;;8.70;;
37449;SDS011;23309;52.582;13.406;2022-08-19T01:38:19;10.33;;;9.33;;
37449;SDS011;23309;52.582;13.406;2022-08-19T01:40:51;11.00;;;10.00;;
37449;SDS011;23309;52.582;13.406;2022-08-19T01:43:18;13.43;;;9.10;;
37449;SDS011;23309;52.582;13.406;2022-08-19T01:45:45;15.53;;;9.50;;
37449;SDS011;23309;52.582;13.406;2022-08-19T01:48:12;10.87;;;9.87;;
37449;SDS011;23309;52.582;13.406;2022-08-19T01:50:39;11.50;;;9.00;;
37449;SDS011;23309;52.582;13.406;2022-08-19T01:53:06;10.80;;;9.70;;
37449;SDS011;23309;52.582;13.406;2022-08-19T01:55:36;11.97;;;9.67;;
37449;SDS011;23309;52.582;13.406;2022-08-19T01:58:09;11.30;;;9.23;;
37449;SDS011;23309;52.582;13.406;2022-08-19T02:00:40;10.53;;;9.10;;
37449;SDS011;23309;52.582;13.406;2022-08-19T02:03:06;10.10;;;9.10;;
37449;SDS011;23309;52.582;13.406;2022-08-19T02:05:33;11.07;;;9.77;;
37449;SDS011;23309;52.582;13.406;2022-08-19T02:07:59;11.03;;;10.03;;
37449;SDS011;23309;52.582;13.406;2022-08-19T02:10:25;14.70;;;9.80;;
37449;SDS011;23309;52.582;13.406;2022-08-19T02:12:51;10.83;;;9.73;;
37449;SDS011;23309;52.582;13.406;2022-08-19T02:15:20;15.10;;;11.20;;
37449;SDS011;23309;52.582;13.406;2022-08-19T02:17:47;14.63;;;10.47;;
37449;SDS011;23309;52.582;13.406;2022-08-19T02:20:13;13.83;;;11.07;;
37449;SDS011;23309;52.582;13.406;2022-08-19T02:22:41;12.93;;;10.73;;
37449;SDS011;23309;52.582;13.406;2022-08-19T02:25:08;16.33;;;10.40;;
37449;SDS011;23309;52.582;13.406;2022-08-19T02:27:36;13.30;;;10.57;;
37449;SDS011;23309;52.582;13.406;2022-08-19T02:30:02;14.80;;;10.50;;
37449;SDS011;23309;52.582;13.406;2022-08-19T02:32:33;10.90;;;9.80;;
37449;SDS011;23309;52.582;13.406;2022-08-19T02:35:00;15.93;;;9.47;;
37449;SDS011;23309;52.582;13.406;2022-08-19T02:37:26;12.00;;;10.40;;
37449;SDS011;23309;52.582;13.406;2022-08-19T02:39:52;10.17;;;9.17;;
37449;SDS011;23309;52.582;13.406;2022-08-19T02:42:18;15.53;;;10.27;;
37449;SDS011;23309;52.582;13.406;2022-08-19T02:44:45;9.00;;;8.20;;
37449;SDS011;23309;52.582;13.406;2022-08-19T02:47:11;13.30;;;9.10;;
37449;SDS011;23309;52.582;13.406;2022-08-19T02:49:39;10.77;;;9.67;;
37449;SDS011;23309;52.582;13.406;2022-08-19T02:52:06;12.07;;;9.47;;
37449;SDS011;23309;52.582;13.406;2022-08-19T02:54:32;9.87;;;8.80;;
37449;SDS011;23309;52.582;13.406;2022-08-19T02:56:58;10.80;;;9.17;;
37449;SDS011;23309;52.582;13.406;2022-08-19T02:59:24;15.20;;;10.07;;
37449;SDS011;23309;52.582;13.406;2022-08-19T03:01:50;10.73;;;9.13;;
37449;SDS011;23309;52.582;13.406;2022-08-19T03:04:17;10.50;;;9.40;;
37449;SDS011;23309;52.582;13.406;2022-08-19T03:06:47;11.10;;;9.60;;
37449;SDS011;23309;52.582;13.406;2022-08-19T03:09:13;10.10;;;9.20;;
37449;SDS011;23309;52.582;13.406;2022-08-19T03:11:41;10.07;;;9.07;;
37449;SDS011;23309;52.582;13.406;2022-08-19T03:14:08;11.80;;;9.57;;
37449;SDS011;23309;52.582;13.406;2022-08-19T03:16:35;12.53;;;9.13;;
37449;SDS011;23309;52.582;13.406;2022-08-19T03:19:07;11.47;;;9.10;;
37449;SDS011;23309;52.582;13.406;2022-08-19T03:21:33;11.10;;;10.00;;
37449;SDS011;23309;52.582;13.406;2022-08-19T03:24:04;10.10;;;9.10;;
37449;SDS011;23309;52.582;13.406;2022-08-19T03:26:33;12.00;;;10.03;;
37449;SDS011;23309;52.582;13.406;2022-08-19T03:29:03;11.37;;;9.93;;
37449;SDS011;23309;52.582;13.406;2022-08-19T03:31:30;11.30;;;10.20;;
37449;SDS011;23309;52.582;13.406;2022-08-19T03:33:57;13.20;;;9.40;;
37449;SDS011;23309;52.582;13.406;2022-08-19T03:36:23;11.40;;;9.73;;
37449;SDS011;23309;52.582;13.406;2022-08-19T03:38:53;11.40;;;9.43;;
37449;SDS011;23309;52.582;13.406;2022-08-19T03:41:25;11.57;;;10.17;;
37449;SDS011;23309;52.582;13.406;2022-08-19T03:43:53;13.60;;;9.77;;
37449;SDS011;23309;52.582;13.406;2022-08-19T03:46:20;11.50;;;8.93;;
37449;SDS011;23309;52.582;13.406;2022-08-19T03:48:50;10.60;;;9.50;;
37449;SDS011;23309;52.582;13.406;2022-08-19T03:51:19;10.73;;;9.63;;
37449;SDS011;23309;52.582;13.406;2022-08-19T03:53:48;11.73;;;9.17;;
37449;SDS011;23309;52.582;13.406;2022-08-19T03:56:15;11.80;;;9.60;;
37449;SDS011;23309;52.582;13.406;2022-08-19T03:58:44;9.90;;;9.00;;
37449;SDS011;23309;52.582;13.406;2022-08-19T04:01:12;10.40;;;9.40;;
37449;SDS011;23309;52.582;13.406;2022-08-19T04:03:40;9.70;;;8.80;;
37449;SDS011;23309;52.582;13.406;2022-08-19T04:06:10;10.10;;;9.20;;
37449;SDS011;23309;52.582;13.406;2022-08-19T04:08:38;10.40;;;9.00;;
37449;SDS011;23309;52.582;13.406;2022-08-19T04:11:06;9.57;;;8.57;;
37449;SDS011;23309;52.582;13.406;2022-08-19T04:13:33;13.20;;;9.30;;
37449;SDS011;23309;52.582;13.406;2022-08-19T04:16:02;10.37;;;9.33;;
37449;SDS011;23309;52.582;13.406;2022-08-19T04:18:29;11.27;;;8.70;;
37449;SDS011;23309;52.582;13.406;2022-08-19T04:20:55;11.00;;;9.90;;
37449;SDS011;23309;52.582;13.406;2022-08-19T04:23:22;10.53;;;9.50;;
37449;SDS011;23309;52.582;13.406;2022-08-19T04:25:48;12.73;;;10.07;;
37449;SDS011;23309;52.582;13.406;2022-08-19T04:28:14;11.03;;;9.93;;
37449;SDS011;23309;52.582;13.406;2022-08-19T04:30:42;11.03;;;9.93;;
37449;SDS011;23309;52.582;13.406;2022-08-19T04:33:14;11.17;;;10.07;;
37449;SDS011;23309;52.582;13.406;2022-08-19T04:35:43;12.20;;;9.37;;
37449;SDS011;23309;52.582;13.406;2022-08-19T04:38:11;12.43;;;9.87;;
37449;SDS011;23309;52.582;13.406;2022-08-19T04:40:39;10.33;;;9.27;;
37449;SDS011;23309;52.582;13.406;2022-08-19T04:43:07;11.20;;;10.10;;
37449;SDS011;23309;52.582;13.406;2022-08-19T04:45:33;11.20;;;10.10;;
37449;SDS011;23309;52.582;13.406;2022-08-19T04:48:02;9.97;;;8.90;;
37449;SDS011;23309;52.582;13.406;2022-08-19T04:50:31;11.10;;;10.00;;
37449;SDS011;23309;52.582;13.406;2022-08-19T04:52:57;11.17;;;9.80;;
37449;SDS011;23309;52.582;13.406;2022-08-19T04:55:24;15.93;;;10.40;;
37449;SDS011;23309;52.582;13.406;2022-08-19T04:57:50;11.20;;;10.00;;
37449;SDS011;23309;52.582;13.406;2022-08-19T05:00:16;12.67;;;10.77;;
37449;SDS011;23309;52.582;13.406;2022-08-19T05:02:43;11.27;;;10.17;;
37449;SDS011;23309;52.582;13.406;2022-08-19T05:05:09;12.40;;;10.10;;
37449;SDS011;23309;52.582;13.406;2022-08-19T05:07:38;11.90;;;9.50;;
37449;SDS011;23309;52.582;13.406;2022-08-19T05:10:04;11.07;;;10.00;;
37449;SDS011;23309;52.582;13.406;2022-08-19T05:12:31;11.53;;;10.33;;
37449;SDS011;23309;52.582;13.406;2022-08-19T05:14:58;12.40;;;11.10;;
37449;SDS011;23309;52.582;13.406;2022-08-19T05:17:26;10.23;;;9.23;;
37449;SDS011;23309;52.582;13.406;2022-08-19T05:19:53;11.80;;;10.30;;
37449;SDS011;23309;52.582;13.406;2022-08-19T05:22:20;12.63;;;9.30;;
37449;SDS011;23309;52.582;13.406;2022-08-19T05:24:48;12.93;;;10.30;;
37449;SDS011;23309;52.582;13.406;2022-08-19T05:27:14;11.10;;;10.00;;
37449;SDS011;23309;52.582;13.406;2022-08-19T05:29:41;11.33;;;9.67;;
37449;SDS011;23309;52.582;13.406;2022-08-19T05:32:07;12.97;;;9.50;;
37449;SDS011;23309;52.582;13.406;2022-08-19T05:34:33;10.90;;;9.80;;
37449;SDS011;23309;52.582;13.406;2022-08-19T05:37:01;9.47;;;8.57;;
37449;SDS011;23309;52.582;13.406;2022-08-19T05:39:29;17.80;;;10.20;;
37449;SDS011;23309;52.582;13.406;2022-08-19T05:42:01;13.37;;;9.53;;
37449;SDS011;23309;52.582;13.406;2022-08-19T05:44:32;11.00;;;9.40;;
37449;SDS011;23309;52.582;13.406;2022-08-19T05:47:04;11.30;;;9.77;;
37449;SDS011;23309;52.582;13.406;2022-08-19T05:49:32;10.63;;;9.00;;
37449;SDS011;23309;52.582;13.406;2022-08-19T05:52:01;10.27;;;9.27;;
37449;SDS011;23309;52.582;13.406;2022-08-19T05:54:28;10.67;;;9.67;;
37449;SDS011;23309;52.582;13.406;2022-08-19T05:56:54;10.73;;;9.63;;
37449;SDS011;23309;52.582;13.406;2022-08-19T05:59:22;10.87;;;9.70;;
37449;SDS011;23309;52.582;13.406;2022-08-19T06:01:50;10.03;;;9.00;;
37449;SDS011;23309;52.582;13.406;2022-08-19T06:04:18;11.47;;;10.37;;
37449;SDS011;23309;52.582;13.406;2022-08-19T06:06:45;11.50;;;10.23;;
37449;SDS011;23309;52.582;13.406;2022-08-19T06:09:12;10.17;;;9.13;;
37449;SDS011;23309;52.582;13.406;2022-08-19T06:11:40;11.33;;;10.10;;
37449;SDS011;23309;52.582;13.406;2022-08-19T06:14:10;12.60;;;10.20;;
37449;SDS011;23309;52.582;13.406;2022-08-19T06:16:41;10.63;;;9.63;;
37449;SDS011;23309;52.582;13.406;2022-08-19T06:19:09;12.00;;;10.37;;
37449;SDS011;23309;52.582;13.406;2022-08-19T06:21:38;12.07;;;10.87;;
37449;SDS011;23309;52.582;13.406;2022-08-19T06:24:08;12.23;;;10.60;;
37449;SDS011;23309;52.582;13.406;2022-08-19T06:26:39;16.07;;;11.67;;
37449;SDS011;23309;52.582;13.406;2022-08-19T06:29:09;15.03;;;10.73;;
37449;SDS011;23309;52.582;13.406;2022-08-19T06:31:41;17.60;;;10.33;;
37449;SDS011;23309;52.582;13.406;2022-08-19T06:34:09;11.53;;;10.37;;
37449;SDS011;23309;52.582;13.406;2022-08-19T06:36:37;13.93;;;11.60;;
37449;SDS011;23309;52.582;13.406;2022-08-19T06:39:11;13.13;;;11.83;;
37449;SDS011;23309;52.582;13.406;2022-08-19T06:41:40;15.57;;;11.03;;
37449;SDS011;23309;52.582;13.406;2022-08-19T06:44:09;12.83;;;11.13;;
37449;SDS011;23309;52.582;13.406;2022-08-19T06:46:36;12.53;;;11.20;;
37449;SDS011;23309;52.582;13.406;2022-08-19T06:49:05;12.10;;;11.00;;
37449;SDS011;23309;52.582;13.406;2022-08-19T06:51:32;12.60;;;11.30;;
37449;SDS011;23309;52.582;13.406;2022-08-19T06:53:58;12.17;;;10.93;;
37449;SDS011;23309;52.582;13.406;2022-08-19T06:56:25;13.77;;;11.93;;
37449;SDS011;23309;52.582;13.406;2022-08-19T06:58:54;13.53;;;12.13;;
37449;SDS011;23309;52.582;13.406;2022-08-19T07:01:20;13.97;;;11.77;;
37449;SDS011;23309;52.582;13.406;2022-08-19T07:03:46;11.60;;;10.40;;
37449;SDS011;23309;52.582;13.406;2022-08-19T07:06:15;14.90;;;11.30;;
37449;SDS011;23309;52.582;13.406;2022-08-19T07:08:43;13.67;;;12.30;;
37449;SDS011;23309;52.582;13.406;2022-08-19T07:11:10;12.93;;;11.50;;
37449;SDS011;23309;52.582;13.406;2022-08-19T07:13:39;13.90;;;11.93;;
37449;SDS011;23309;52.582;13.406;2022-08-19T07:16:06;14.90;;;12.63;;
37449;SDS011;23309;52.582;13.406;2022-08-19T07:18:33;16.90;;;12.57;;
37449;SDS011;23309;52.582;13.406;2022-08-19T07:21:03;14.57;;;11.83;;
37449;SDS011;23309;52.582;13.406;2022-08-19T07:23:34;13.93;;;12.53;;
37449;SDS011;23309;52.582;13.406;2022-08-19T07:26:03;13.87;;;12.57;;
37449;SDS011;23309;52.582;13.406;2022-08-19T07:28:31;15.47;;;12.33;;
37449;SDS011;23309;52.582;13.406;2022-08-19T07:30:57;13.90;;;12.50;;
37449;SDS011;23309;52.582;13.406;2022-08-19T07:33:23;14.90;;;13.30;;
37449;SDS011;23309;52.582;13.406;2022-08-19T07:35:49;15.27;;;12.87;;
37449;SDS011;23309;52.582;13.406;2022-08-19T07:38:16;15.47;;;13.97;;
37449;SDS011;23309;52.582;13.406;2022-08-19T07:40:45;16.63;;;13.80;;
37449;SDS011;23309;52.582;13.406;2022-08-19T07:43:11;18.40;;;13.97;;
37449;SDS011;23309;52.582;13.406;2022-08-19T07:45:37;14.60;;;12.13;;
37449;SDS011;23309;52.582;13.406;2022-08-19T07:48:04;14.30;;;12.90;;
37449;SDS011;23309;52.582;13.406;2022-08-19T07:50:30;16.40;;;13.20;;
37449;SDS011;23309;52.582;13.406;2022-08-19T07:52:56;17.67;;;14.53;;
37449;SDS011;23309;52.582;13.406;2022-08-19T07:55:23;14.67;;;13.30;;
37449;SDS011;23309;52.582;13.406;2022-08-19T07:57:53;17.80;;;13.53;;
37449;SDS011;23309;52.582;13.406;2022-08-19T08:00:19;14.40;;;12.93;;
37449;SDS011;23309;52.582;13.406;2022-08-19T08:02:46;15.90;;;14.30;;
37449;SDS011;23309;52.582;13.406;2022-08-19T08:05:12;15.07;;;13.17;;
37449;SDS011;23309;52.582;13.406;2022-08-19T08:07:38;17.80;;;14.07;;
37449;SDS011;23309;52.582;13.406;2022-08-19T08:10:05;16.07;;;13.20;;
37449;SDS011;23309;52.582;13.406;2022-08-19T08:12:33;16.53;;;14.83;;
37449;SDS011;23309;52.582;13.406;2022-08-19T08:15:06;15.70;;;14.20;;
37449;SDS011;23309;52.582;13.406;2022-08-19T08:17:37;14.57;;;13.17;;
37449;SDS011;23309;52.582;13.406;2022-08-19T08:20:05;14.97;;;13.47;;
37449;SDS011;23309;52.582;13.406;2022-08-19T08:22:32;16.23;;;13.97;;
37449;SDS011;23309;52.582;13.406;2022-08-19T08:25:00;17.57;;;14.13;;
37449;SDS011;23309;52.582;13.406;2022-08-19T08:27:30;18.27;;;14.27;;
37449;SDS011;23309;52.582;13.406;2022-08-19T08:29:56;15.70;;;14.07;;
37449;SDS011;23309;52.582;13.406;2022-08-19T08:32:25;15.80;;;14.20;;
37449;SDS011;23309;52.582;13.406;2022-08-19T08:34:51;15.13;;;13.70;;
37449;SDS011;23309;52.582;13.406;2022-08-19T08:37:18;14.77;;;13.03;;
37449;SDS011;23309;52.582;13.406;2022-08-19T08:39:44;14.97;;;13.53;;
37449;SDS011;23309;52.582;13.406;2022-08-19T08:42:11;16.33;;;14.47;;
37449;SDS011;23309;52.582;13.406;2022-08-19T08:44:49;16.27;;;14.57;;
37449;SDS011;23309;52.582;13.406;2022-08-19T08:47:26;17.47;;;13.77;;
37449;SDS011;23309;52.582;13.406;2022-08-19T08:50:00;15.90;;;13.63;;
37449;SDS011;23309;52.582;13.406;2022-08-19T08:52:31;16.07;;;14.57;;
37449;SDS011;23309;52.582;13.406;2022-08-19T08:55:00;16.13;;;14.47;;
37449;SDS011;23309;52.582;13.406;2022-08-19T08:57:35;16.83;;;14.00;;
37449;SDS011;23309;52.582;13.406;2022-08-19T09:00:09;15.10;;;13.60;;
37449;SDS011;23309;52.582;13.406;2022-08-19T09:02:44;15.03;;;13.53;;
37449;SDS011;23309;52.582;13.406;2022-08-19T09:05:10;15.93;;;14.33;;
37449;SDS011;23309;52.582;13.406;2022-08-19T09:07:39;17.77;;;13.50;;
37449;SDS011;23309;52.582;13.406;2022-08-19T09:10:15;16.07;;;13.60;;
37449;SDS011;23309;52.582;13.406;2022-08-19T09:12:52;15.50;;;14.03;;
37449;SDS011;23309;52.582;13.406;2022-08-19T09:15:28;15.30;;;13.83;;
37449;SDS011;23309;52.582;13.406;2022-08-19T09:18:03;15.23;;;12.57;;
37449;SDS011;23309;52.582;13.406;2022-08-19T09:20:30;14.70;;;13.20;;
37449;SDS011;23309;52.582;13.406;2022-08-19T09:22:56;14.00;;;12.60;;
37449;SDS011;23309;52.582;13.406;2022-08-19T09:25:24;13.80;;;12.40;;
37449;SDS011;23309;52.582;13.406;2022-08-19T09:27:51;14.43;;;12.53;;
37449;SDS011;23309;52.582;13.406;2022-08-19T09:30:20;12.60;;;11.40;;
37449;SDS011;23309;52.582;13.406;2022-08-19T09:32:49;14.37;;;12.83;;
37449;SDS011;23309;52.582;13.406;2022-08-19T09:35:19;13.63;;;12.23;;
37449;SDS011;23309;52.582;13.406;2022-08-19T09:37:46;14.40;;;12.40;;
37449;SDS011;23309;52.582;13.406;2022-08-19T09:40:13;14.20;;;11.97;;
37449;SDS011;23309;52.582;13.406;2022-08-19T09:42:40;13.30;;;11.90;;
37449;SDS011;23309;52.582;13.406;2022-08-19T09:45:06;13.30;;;12.00;;
37449;SDS011;23309;52.582;13.406;2022-08-19T09:47:33;14.57;;;12.30;;
37449;SDS011;23309;52.582;13.406;2022-08-19T09:50:00;13.77;;;12.47;;
37449;SDS011;23309;52.582;13.406;2022-08-19T09:52:29;12.40;;;11.30;;
37449;SDS011;23309;52.582;13.406;2022-08-19T09:54:55;13.23;;;11.80;;
37449;SDS011;23309;52.582;13.406;2022-08-19T09:57:21;12.83;;;11.47;;
37449;SDS011;23309;52.582;13.406;2022-08-19T09:59:47;12.90;;;11.70;;
37449;SDS011;23309;52.582;13.406;2022-08-19T10:02:13;13.57;;;12.27;;
37449;SDS011;23309;52.582;13.406;2022-08-19T10:04:39;11.50;;;10.37;;
37449;SDS011;23309;52.582;13.406;2022-08-19T10:07:06;13.00;;;11.70;;
37449;SDS011;23309;52.582;13.406;2022-08-19T10:09:34;12.60;;;11.20;;
37449;SDS011;23309;52.582;13.406;2022-08-19T10:12:01;12.53;;;11.33;;
37449;SDS011;23309;52.582;13.406;2022-08-19T10:14:29;13.13;;;11.00;;
37449;SDS011;23309;52.582;13.406;2022-08-19T10:16:56;13.20;;;11.80;;
37449;SDS011;23309;52.582;13.406;2022-08-19T10:19:22;11.97;;;10.73;;
37449;SDS011;23309;52.582;13.406;2022-08-19T10:21:48;12.90;;;11.40;;
37449;SDS011;23309;52.582;13.406;2022-08-19T10:24:14;12.50;;;11.20;;
37449;SDS011;23309;52.582;13.406;2022-08-19T10:26:43;13.70;;;11.33;;
37449;SDS011;23309;52.582;13.406;2022-08-19T10:29:09;16.03;;;12.43;;
37449;SDS011;23309;52.582;13.406;2022-08-19T10:31:36;12.90;;;11.33;;
37449;SDS011;23309;52.582;13.406;2022-08-19T10:34:02;13.27;;;11.83;;
37449;SDS011;23309;52.582;13.406;2022-08-19T10:36:30;13.20;;;11.80;;
37449;SDS011;23309;52.582;13.406;2022-08-19T10:39:00;13.73;;;12.23;;
37449;SDS011;23309;52.582;13.406;2022-08-19T10:41:33;13.80;;;11.50;;
37449;SDS011;23309;52.582;13.406;2022-08-19T10:44:05;13.00;;;11.60;;
37449;SDS011;23309;52.582;13.406;2022-08-19T10:46:35;13.10;;;11.80;;
37449;SDS011;23309;52.582;13.406;2022-08-19T10:49:03;13.83;;;12.37;;
37449;SDS011;23309;52.582;13.406;2022-08-19T10:51:31;12.80;;;11.40;;
37449;SDS011;23309;52.582;13.406;2022-08-19T10:53:57;12.83;;;11.53;;
37449;SDS011;23309;52.582;13.406;2022-08-19T10:56:25;12.63;;;11.40;;
37449;SDS011;23309;52.582;13.406;2022-08-19T10:58:51;12.20;;;11.10;;
37449;SDS011;23309;52.582;13.406;2022-08-19T11:01:20;12.70;;;11.50;;
37449;SDS011;23309;52.582;13.406;2022-08-19T11:03:46;12.30;;;11.00;;
37449;SDS011;23309;52.582;13.406;2022-08-19T11:06:12;13.53;;;11.83;;
37449;SDS011;23309;52.582;13.406;2022-08-19T11:08:38;12.73;;;11.30;;
37449;SDS011;23309;52.582;13.406;2022-08-19T11:11:05;16.90;;;11.23;;
37449;SDS011;23309;52.582;13.406;2022-08-19T11:13:34;15.27;;;11.50;;
37449;SDS011;23309;52.582;13.406;2022-08-19T11:16:05;13.23;;;11.93;;
37449;SDS011;23309;52.582;13.406;2022-08-19T11:18:38;14.07;;;11.00;;
37449;SDS011;23309;52.582;13.406;2022-08-19T11:21:07;13.00;;;11.10;;
37449;SDS011;23309;52.582;13.406;2022-08-19T11:23:36;11.97;;;10.00;;
37449;SDS011;23309;52.582;13.406;2022-08-19T11:26:03;12.43;;;11.20;;
37449;SDS011;23309;52.582;13.406;2022-08-19T11:28:30;11.40;;;10.30;;
37449;SDS011;23309;52.582;13.406;2022-08-19T11:30:57;11.17;;;10.07;;
37449;SDS011;23309;52.582;13.406;2022-08-19T11:33:23;15.20;;;10.27;;
37449;SDS011;23309;52.582;13.406;2022-08-19T11:35:51;11.73;;;10.53;;
37449;SDS011;23309;52.582;13.406;2022-08-19T11:38:18;11.13;;;9.97;;
37449;SDS011;23309;52.582;13.406;2022-08-19T11:40:44;11.57;;;10.37;;
37449;SDS011;23309;52.582;13.406;2022-08-19T11:43:18;11.47;;;10.37;;
37449;SDS011;23309;52.582;13.406;2022-08-19T11:45:44;12.27;;;10.13;;
37449;SDS011;23309;52.582;13.406;2022-08-19T11:48:10;11.97;;;10.67;;
37449;SDS011;23309;52.582;13.406;2022-08-19T11:50:36;10.50;;;9.50;;
37449;SDS011;23309;52.582;13.406;2022-08-19T11:53:05;11.00;;;9.90;;
37449;SDS011;23309;52.582;13.406;2022-08-19T11:55:31;11.87;;;10.00;;
37449;SDS011;23309;52.582;13.406;2022-08-19T11:57:57;10.93;;;9.67;;
37449;SDS011;23309;52.582;13.406;2022-08-19T12:00:23;10.30;;;9.27;;
37449;SDS011;23309;52.582;13.406;2022-08-19T12:02:50;10.13;;;9.27;;
37449;SDS011;23309;52.582;13.406;2022-08-19T12:05:16;10.90;;;8.67;;
37449;SDS011;23309;52.582;13.406;2022-08-19T12:07:42;9.53;;;8.50;;
37449;SDS011;23309;52.582;13.406;2022-08-19T12:10:11;10.00;;;8.87;;
37449;SDS011;23309;52.582;13.406;2022-08-19T12:12:37;9.37;;;8.57;;
37449;SDS011;23309;52.582;13.406;2022-08-19T12:15:04;9.63;;;8.63;;
37449;SDS011;23309;52.582;13.406;2022-08-19T12:17:32;9.77;;;8.90;;
37449;SDS011;23309;52.582;13.406;2022-08-19T12:19:58;12.10;;;8.87;;
37449;SDS011;23309;52.582;13.406;2022-08-19T12:22:24;9.30;;;8.20;;
37449;SDS011;23309;52.582;13.406;2022-08-19T12:24:50;9.53;;;8.33;;
37449;SDS011;23309;52.582;13.406;2022-08-19T12:27:19;9.13;;;8.27;;
37449;SDS011;23309;52.582;13.406;2022-08-19T12:29:45;8.53;;;7.73;;
37449;SDS011;23309;52.582;13.406;2022-08-19T12:32:11;8.80;;;8.00;;
37449;SDS011;23309;52.582;13.406;2022-08-19T12:34:38;8.80;;;7.90;;
37449;SDS011;23309;52.582;13.406;2022-08-19T12:37:05;8.53;;;7.73;;
37449;SDS011;23309;52.582;13.406;2022-08-19T12:39:33;8.43;;;7.73;;
37449;SDS011;23309;52.582;13.406;2022-08-19T12:42:02;10.50;;;8.00;;
37449;SDS011;23309;52.582;13.406;2022-08-19T12:44:31;8.43;;;7.63;;
37449;SDS011;23309;52.582;13.406;2022-08-19T12:46:58;9.77;;;7.80;;
37449;SDS011;23309;52.582;13.406;2022-08-19T12:49:24;10.07;;;7.67;;
37449;SDS011;23309;52.582;13.406;2022-08-19T12:51:52;10.03;;;7.90;;
37449;SDS011;23309;52.582;13.406;2022-08-19T12:54:18;8.53;;;7.67;;
37449;SDS011;23309;52.582;13.406;2022-08-19T12:56:44;11.00;;;7.93;;
37449;SDS011;23309;52.582;13.406;2022-08-19T12:59:10;10.50;;;8.07;;
37449;SDS011;23309;52.582;13.406;2022-08-19T13:01:39;9.70;;;8.80;;
37449;SDS011;23309;52.582;13.406;2022-08-19T13:04:05;9.20;;;8.30;;
37449;SDS011;23309;52.582;13.406;2022-08-19T13:06:31;8.53;;;7.57;;
37449;SDS011;23309;52.582;13.406;2022-08-19T13:08:58;8.37;;;7.67;;
37449;SDS011;23309;52.582;13.406;2022-08-19T13:11:24;9.37;;;8.37;;
37449;SDS011;23309;52.582;13.406;2022-08-19T13:13:51;9.10;;;8.30;;
37449;SDS011;23309;52.582;13.406;2022-08-19T13:16:18;9.50;;;8.00;;
37449;SDS011;23309;52.582;13.406;2022-08-19T13:18:47;8.77;;;7.87;;
37449;SDS011;23309;52.582;13.406;2022-08-19T13:21:14;9.13;;;8.10;;
37449;SDS011;23309;52.582;13.406;2022-08-19T13:23:40;8.60;;;7.80;;
37449;SDS011;23309;52.582;13.406;2022-08-19T13:26:07;9.17;;;8.37;;
37449;SDS011;23309;52.582;13.406;2022-08-19T13:28:35;9.20;;;8.17;;
37449;SDS011;23309;52.582;13.406;2022-08-19T13:31:01;9.00;;;8.17;;
37449;SDS011;23309;52.582;13.406;2022-08-19T13:33:27;10.20;;;8.73;;
37449;SDS011;23309;52.582;13.406;2022-08-19T13:35:58;10.47;;;8.63;;
37449;SDS011;23309;52.582;13.406;2022-08-19T13:38:25;9.00;;;8.20;;
37449;SDS011;23309;52.582;13.406;2022-08-19T13:40:53;11.07;;;9.63;;
37449;SDS011;23309;52.582;13.406;2022-08-19T13:43:21;10.00;;;9.10;;
37449;SDS011;23309;52.582;13.406;2022-08-19T13:45:51;10.77;;;9.67;;
37449;SDS011;23309;52.582;13.406;2022-08-19T13:48:19;10.83;;;9.70;;
37449;SDS011;23309;52.582;13.406;2022-08-19T13:50:45;10.90;;;9.53;;
37449;SDS011;23309;52.582;13.406;2022-08-19T13:53:15;10.17;;;8.67;;
37449;SDS011;23309;52.582;13.406;2022-08-19T13:55:42;9.80;;;8.90;;
37449;SDS011;23309;52.582;13.406;2022-08-19T13:58:10;9.93;;;9.00;;
37449;SDS011;23309;52.582;13.406;2022-08-19T14:00:38;11.77;;;9.30;;
37449;SDS011;23309;52.582;13.406;2022-08-19T14:03:10;10.37;;;9.27;;
37449;SDS011;23309;52.582;13.406;2022-08-19T14:05:37;10.93;;;9.50;;
37449;SDS011;23309;52.582;13.406;2022-08-19T14:08:03;13.07;;;9.17;;
37449;SDS011;23309;52.582;13.406;2022-08-19T14:10:32;12.77;;;9.00;;
37449;SDS011;23309;52.582;13.406;2022-08-19T14:12:59;9.70;;;8.80;;
37449;SDS011;23309;52.582;13.406;2022-08-19T14:15:28;10.80;;;9.70;;
37449;SDS011;23309;52.582;13.406;2022-08-19T14:17:55;10.20;;;9.10;;
37449;SDS011;23309;52.582;13.406;2022-08-19T14:20:22;9.80;;;8.90;;